This is the latest recevied weather packets stored in our database for station/object K7DC. If no packets are shown the sender has not sent any weather packets the latest 10 day(s).
| Time | Temp. | Humidity | Pressure | Rain* | Wind** | Luminosity | Snow |
|---|---|---|---|---|---|---|---|
| 1788622284 | 31.11° C | 49% | 1017.2 hPa | 0 mm | - | 399 W/m² | - |
| 1788621979 | 31.11° C | 50% | 1017.2 hPa | 0 mm | - | 342 W/m² | - |
| 1788621674 | 30.56° C | 52% | 1017.1 hPa | 0 mm | - | 375 W/m² | - |
| 1788621369 | 30.56° C | 51% | 1017.2 hPa | 0 mm | - | 345 W/m² | - |
| 1788621064 | 30° C | 52% | 1017.4 hPa | 0 mm | - | 332 W/m² | - |
| 1788620759 | 30° C | 53% | 1017.2 hPa | 0 mm | - | 68 W/m² | - |
| 1788620458 | 29.44° C | 54% | 1017 hPa | 0 mm | - | 278 W/m² | - |
| 1788620156 | 28.33° C | 58% | 1017 hPa | 0 mm | - | 266 W/m² | - |
| 1788619855 | 27.78° C | 59% | 1017 hPa | 0 mm | - | 56 W/m² | - |
| 1788619551 | 27.22° C | 62% | 1017 hPa | 0 mm | - | 226 W/m² | - |
| 1788619250 | 26.67° C | 63% | 1017 hPa | 0 mm | - | 55 W/m² | - |
| 1788618949 | 26.67° C | 65% | 1017.1 hPa | 0 mm | - | 67 W/m² | - |
| 1788618645 | 26.67° C | 65% | 1017.1 hPa | 0 mm | - | 128 W/m² | - |
| 1788618343 | 26.11° C | 66% | 1017 hPa | 0 mm | - | 148 W/m² | - |
| 1788618039 | 25.56° C | 67% | 1017.1 hPa | 0 mm | - | 134 W/m² | - |
| 1788617739 | 25° C | 69% | 1016.9 hPa | 0 mm | - | 113 W/m² | - |
| 1788617436 | 25° C | 68% | 1017 hPa | 0 mm | - | 76 W/m² | - |
| 1788617136 | 25° C | 70% | 1016.8 hPa | 0 mm | - | 51 W/m² | - |
| 1788616835 | 25° C | 70% | 1016.8 hPa | 0 mm | - | 73 W/m² | - |
| 1788616531 | 24.44° C | 70% | 1016.8 hPa | 0 mm | - | 75 W/m² | - |
| 1788616231 | 24.44° C | 71% | 1016.9 hPa | 0 mm | - | 48 W/m² | - |
| 1788615926 | 23.89° C | 72% | 1016.8 hPa | 0 mm | - | 51 W/m² | - |
| 1788615624 | 23.89° C | 72% | 1016.6 hPa | 0 mm | - | 45 W/m² | - |
| 1788615320 | 23.33° C | 73% | 1016.5 hPa | 0 mm | - | 39 W/m² | - |
| 1788615020 | 22.78° C | 75% | 1016.3 hPa | 0 mm | - | 31 W/m² | - |
* Rain latest hour (hover to see other rain measurements)
** Current wind speed in m/s (hover to see current wind gust speed)